sensor_id;sensor_type;location;lat;lon;timestamp;pressure;altitude;pressure_sealevel;temperature;humidity
58467;BME280;44255;49.244;7.726;2023-03-24T04:30:46;97278.38;;;4.01;100.00
58467;BME280;44255;49.244;7.726;2023-03-24T04:33:18;97279.41;;;3.98;100.00
58467;BME280;44255;49.244;7.726;2023-03-24T04:36:02;97275.09;;;4.12;100.00
58467;BME280;44255;49.244;7.726;2023-03-24T04:38:31;97272.13;;;4.02;100.00
58467;BME280;44255;49.244;7.726;2023-03-24T04:41:00;97258.81;;;4.02;100.00
58467;BME280;44255;49.244;7.726;2023-03-24T04:43:29;97265.41;;;3.80;100.00
58467;BME280;44255;49.244;7.726;2023-03-24T04:46:00;97261.47;;;4.02;100.00
58467;BME280;44255;49.244;7.726;2023-03-24T04:48:28;97258.44;;;4.08;100.00
58467;BME280;44255;49.244;7.726;2023-03-24T04:50:56;97261.78;;;4.26;100.00
58467;BME280;44255;49.244;7.726;2023-03-24T04:53:22;97259.31;;;4.37;100.00
58467;BME280;44255;49.244;7.726;2023-03-24T04:58:13;97251.31;;;4.23;100.00
58467;BME280;44255;49.244;7.726;2023-03-24T05:00:39;97243.31;;;4.37;100.00
58467;BME280;44255;49.244;7.726;2023-03-24T05:03:05;97237.78;;;4.55;100.00
58467;BME280;44255;49.244;7.726;2023-03-24T05:05:30;97234.34;;;4.09;100.00
58467;BME280;44255;49.244;7.726;2023-03-24T05:07:56;97234.91;;;4.29;100.00
58467;BME280;44255;49.244;7.726;2023-03-24T05:10:22;97243.03;;;4.13;100.00
58467;BME280;44255;49.244;7.726;2023-03-24T05:12:47;97243.69;;;4.46;100.00
58467;BME280;44255;49.244;7.726;2023-03-24T05:15:12;97249.22;;;4.28;100.00
58467;BME280;44255;49.244;7.726;2023-03-24T05:17:38;97251.69;;;4.31;100.00
58467;BME280;44255;49.244;7.726;2023-03-24T05:20:04;97245.69;;;4.13;100.00
58467;BME280;44255;49.244;7.726;2023-03-24T05:22:37;97241.13;;;4.30;100.00
58467;BME280;44255;49.244;7.726;2023-03-24T05:25:03;97239.59;;;4.26;100.00
58467;BME280;44255;49.244;7.726;2023-03-24T05:27:29;97246.00;;;4.37;100.00
58467;BME280;44255;49.244;7.726;2023-03-24T05:29:54;97237.38;;;4.47;100.00
58467;BME280;44255;49.244;7.726;2023-03-24T05:32:19;97252.63;;;4.30;100.00
58467;BME280;44255;49.244;7.726;2023-03-24T05:34:45;97246.94;;;4.36;100.00
58467;BME280;44255;49.244;7.726;2023-03-24T05:37:10;97260.16;;;4.38;100.00
58467;BME280;44255;49.244;7.726;2023-03-24T05:39:38;97254.81;;;4.67;100.00
58467;BME280;44255;49.244;7.726;2023-03-24T05:42:03;97253.47;;;4.74;100.00
58467;BME280;44255;49.244;7.726;2023-03-24T05:44:29;97247.31;;;4.59;100.00
58467;BME280;44255;49.244;7.726;2023-03-24T05:46:54;97258.47;;;4.51;100.00
58467;BME280;44255;49.244;7.726;2023-03-24T05:49:20;97255.41;;;4.58;100.00
58467;BME280;44255;49.244;7.726;2023-03-24T05:51:45;97261.97;;;4.08;100.00
58467;BME280;44255;49.244;7.726;2023-03-24T05:54:10;97260.25;;;4.22;100.00
58467;BME280;44255;49.244;7.726;2023-03-24T05:56:36;97264.56;;;4.10;100.00
58467;BME280;44255;49.244;7.726;2023-03-24T05:59:01;97269.03;;;4.24;100.00
58467;BME280;44255;49.244;7.726;2023-03-24T06:01:26;97266.38;;;4.38;100.00
58467;BME280;44255;49.244;7.726;2023-03-24T06:03:52;97268.47;;;4.19;100.00
58467;BME280;44255;49.244;7.726;2023-03-24T06:06:18;97270.06;;;4.21;100.00
58467;BME280;44255;49.244;7.726;2023-03-24T06:08:43;97268.56;;;4.46;100.00
58467;BME280;44255;49.244;7.726;2023-03-24T06:11:11;97261.31;;;4.48;100.00
58467;BME280;44255;49.244;7.726;2023-03-24T06:13:37;97273.78;;;4.48;100.00
58467;BME280;44255;49.244;7.726;2023-03-24T06:16:02;97272.19;;;4.45;100.00
58467;BME280;44255;49.244;7.726;2023-03-24T06:18:28;97272.47;;;4.55;100.00
58467;BME280;44255;49.244;7.726;2023-03-24T06:20:55;97274.66;;;4.48;100.00
58467;BME280;44255;49.244;7.726;2023-03-24T06:23:26;97271.03;;;4.49;100.00
58467;BME280;44255;49.244;7.726;2023-03-24T06:25:53;97280.66;;;4.52;100.00
58467;BME280;44255;49.244;7.726;2023-03-24T06:28:19;97272.91;;;4.18;100.00
58467;BME280;44255;49.244;7.726;2023-03-24T06:30:45;97277.59;;;4.29;100.00
58467;BME280;44255;49.244;7.726;2023-03-24T06:33:12;97268.00;;;4.27;100.00
58467;BME280;44255;49.244;7.726;2023-03-24T06:35:38;97290.75;;;4.61;100.00
58467;BME280;44255;49.244;7.726;2023-03-24T06:38:03;97266.81;;;4.74;100.00
58467;BME280;44255;49.244;7.726;2023-03-24T06:40:29;97271.41;;;5.14;100.00
58467;BME280;44255;49.244;7.726;2023-03-24T06:42:55;97270.88;;;5.09;100.00
58467;BME280;44255;49.244;7.726;2023-03-24T06:45:20;97292.38;;;4.93;100.00
58467;BME280;44255;49.244;7.726;2023-03-24T06:47:46;97274.66;;;5.19;100.00
58467;BME280;44255;49.244;7.726;2023-03-24T06:50:11;97281.09;;;5.02;100.00
58467;BME280;44255;49.244;7.726;2023-03-24T06:52:36;97289.06;;;5.17;98.84
58467;BME280;44255;49.244;7.726;2023-03-24T06:55:03;97289.03;;;5.31;99.38
58467;BME280;44255;49.244;7.726;2023-03-24T06:57:28;97290.59;;;5.06;99.81
58467;BME280;44255;49.244;7.726;2023-03-24T06:59:54;97286.56;;;5.28;99.23
58467;BME280;44255;49.244;7.726;2023-03-24T07:02:19;97280.56;;;5.25;97.96
58467;BME280;44255;49.244;7.726;2023-03-24T07:04:44;97285.00;;;4.97;99.64
58467;BME280;44255;49.244;7.726;2023-03-24T07:07:10;97289.84;;;5.04;99.63
58467;BME280;44255;49.244;7.726;2023-03-24T07:09:37;97291.16;;;4.70;100.00
58467;BME280;44255;49.244;7.726;2023-03-24T07:12:03;97289.91;;;4.32;100.00
58467;BME280;44255;49.244;7.726;2023-03-24T07:14:28;97298.63;;;4.19;100.00
58467;BME280;44255;49.244;7.726;2023-03-24T07:16:54;97296.47;;;4.26;100.00
58467;BME280;44255;49.244;7.726;2023-03-24T07:19:19;97291.81;;;4.44;100.00
58467;BME280;44255;49.244;7.726;2023-03-24T07:21:46;97300.28;;;4.22;100.00
58467;BME280;44255;49.244;7.726;2023-03-24T07:24:15;97301.03;;;4.24;100.00
58467;BME280;44255;49.244;7.726;2023-03-24T07:26:40;97307.22;;;4.39;100.00
58467;BME280;44255;49.244;7.726;2023-03-24T07:29:05;97294.56;;;4.43;100.00
58467;BME280;44255;49.244;7.726;2023-03-24T07:31:30;97291.13;;;4.84;100.00
58467;BME280;44255;49.244;7.726;2023-03-24T07:34:01;97294.56;;;4.43;100.00
58467;BME280;44255;49.244;7.726;2023-03-24T07:36:27;97305.34;;;4.56;100.00
58467;BME280;44255;49.244;7.726;2023-03-24T07:38:52;97303.16;;;4.62;100.00
58467;BME280;44255;49.244;7.726;2023-03-24T07:41:17;97310.59;;;4.57;100.00
58467;BME280;44255;49.244;7.726;2023-03-24T07:43:43;97300.59;;;4.61;100.00
58467;BME280;44255;49.244;7.726;2023-03-24T07:46:08;97300.38;;;4.64;100.00
58467;BME280;44255;49.244;7.726;2023-03-24T07:48:33;97299.16;;;4.70;100.00
58467;BME280;44255;49.244;7.726;2023-03-24T07:50:58;97312.88;;;4.63;100.00
58467;BME280;44255;49.244;7.726;2023-03-24T07:53:24;97298.19;;;4.56;100.00
58467;BME280;44255;49.244;7.726;2023-03-24T07:55:49;97315.25;;;4.54;100.00
58467;BME280;44255;49.244;7.726;2023-03-24T07:58:14;97301.16;;;4.80;100.00
58467;BME280;44255;49.244;7.726;2023-03-24T08:00:40;97321.94;;;4.61;100.00
58467;BME280;44255;49.244;7.726;2023-03-24T08:03:07;97299.69;;;5.04;99.04
58467;BME280;44255;49.244;7.726;2023-03-24T08:05:33;97299.78;;;4.88;99.15
58467;BME280;44255;49.244;7.726;2023-03-24T08:07:58;97303.25;;;5.17;96.71
58467;BME280;44255;49.244;7.726;2023-03-24T08:10:26;97310.66;;;4.99;98.23
58467;BME280;44255;49.244;7.726;2023-03-24T08:12:52;97314.50;;;4.80;97.99
58467;BME280;44255;49.244;7.726;2023-03-24T08:15:18;97297.41;;;4.83;97.90
58467;BME280;44255;49.244;7.726;2023-03-24T08:17:43;97304.94;;;4.91;97.23
58467;BME280;44255;49.244;7.726;2023-03-24T08:20:10;97301.78;;;5.41;93.18
58467;BME280;44255;49.244;7.726;2023-03-24T08:22:41;97302.13;;;5.21;94.88
58467;BME280;44255;49.244;7.726;2023-03-24T08:25:08;97315.63;;;5.33;94.22
58467;BME280;44255;49.244;7.726;2023-03-24T08:27:34;97304.34;;;5.00;94.57
58467;BME280;44255;49.244;7.726;2023-03-24T08:30:02;97316.28;;;5.36;93.16
58467;BME280;44255;49.244;7.726;2023-03-24T08:32:27;97320.78;;;5.36;92.89
58467;BME280;44255;49.244;7.726;2023-03-24T08:34:52;97320.47;;;5.41;91.44
58467;BME280;44255;49.244;7.726;2023-03-24T08:37:18;97321.91;;;5.46;92.59
58467;BME280;44255;49.244;7.726;2023-03-24T08:39:43;97323.53;;;5.07;94.81
58467;BME280;44255;49.244;7.726;2023-03-24T08:42:10;97319.88;;;5.22;94.86
58467;BME280;44255;49.244;7.726;2023-03-24T08:44:35;97320.09;;;4.90;93.01
58467;BME280;44255;49.244;7.726;2023-03-24T08:47:00;97326.81;;;5.25;92.33
58467;BME280;44255;49.244;7.726;2023-03-24T08:49:25;97319.50;;;5.42;91.88
58467;BME280;44255;49.244;7.726;2023-03-24T08:51:51;97328.38;;;5.15;92.44
58467;BME280;44255;49.244;7.726;2023-03-24T08:54:16;97331.72;;;5.04;92.95
58467;BME280;44255;49.244;7.726;2023-03-24T08:56:41;97337.44;;;4.83;94.84
58467;BME280;44255;49.244;7.726;2023-03-24T08:59:07;97343.91;;;5.22;92.54
58467;BME280;44255;49.244;7.726;2023-03-24T09:01:32;97330.94;;;5.16;92.57
58467;BME280;44255;49.244;7.726;2023-03-24T09:04:01;97331.88;;;5.15;92.45
58467;BME280;44255;49.244;7.726;2023-03-24T09:06:26;97343.38;;;4.74;94.88
58467;BME280;44255;49.244;7.726;2023-03-24T09:08:53;97346.59;;;4.64;97.09
58467;BME280;44255;49.244;7.726;2023-03-24T09:11:20;97334.91;;;5.38;95.49
58467;BME280;44255;49.244;7.726;2023-03-24T09:13:46;97340.38;;;5.07;98.26
58467;BME280;44255;49.244;7.726;2023-03-24T09:16:11;97337.25;;;5.43;98.78
58467;BME280;44255;49.244;7.726;2023-03-24T09:18:37;97341.09;;;5.38;96.42
58467;BME280;44255;49.244;7.726;2023-03-24T09:21:03;97349.47;;;5.05;98.88
58467;BME280;44255;49.244;7.726;2023-03-24T09:23:28;97344.41;;;4.86;97.59
58467;BME280;44255;49.244;7.726;2023-03-24T09:25:55;97359.13;;;4.93;98.10
58467;BME280;44255;49.244;7.726;2023-03-24T09:28:21;97345.75;;;4.93;97.80
58467;BME280;44255;49.244;7.726;2023-03-24T09:30:47;97345.16;;;5.17;97.48
58467;BME280;44255;49.244;7.726;2023-03-24T09:33:12;97359.88;;;4.80;98.81
58467;BME280;44255;49.244;7.726;2023-03-24T09:35:38;97361.19;;;4.88;100.00
58467;BME280;44255;49.244;7.726;2023-03-24T09:38:04;97367.31;;;4.75;100.00
58467;BME280;44255;49.244;7.726;2023-03-24T09:40:36;97370.34;;;4.84;100.00
58467;BME280;44255;49.244;7.726;2023-03-24T09:43:12;97374.34;;;4.62;100.00
58467;BME280;44255;49.244;7.726;2023-03-24T09:45:47;97350.78;;;4.98;100.00
58467;BME280;44255;49.244;7.726;2023-03-24T09:48:50;97363.69;;;4.76;100.00
58467;BME280;44255;49.244;7.726;2023-03-24T09:51:24;97367.41;;;4.88;99.86
58467;BME280;44255;49.244;7.726;2023-03-24T09:54:30;97359.00;;;4.94;100.00
58467;BME280;44255;49.244;7.726;2023-03-24T09:57:00;97362.38;;;5.40;97.18
58467;BME280;44255;49.244;7.726;2023-03-24T09:59:35;97364.19;;;5.54;97.09
58467;BME280;44255;49.244;7.726;2023-03-24T10:02:09;97361.91;;;5.33;96.38
58467;BME280;44255;49.244;7.726;2023-03-24T10:04:36;97359.53;;;5.29;97.14
58467;BME280;44255;49.244;7.726;2023-03-24T10:07:24;97362.53;;;5.66;94.66
58467;BME280;44255;49.244;7.726;2023-03-24T10:09:55;97372.31;;;5.53;96.44
58467;BME280;44255;49.244;7.726;2023-03-24T10:12:32;97405.69;;;5.31;95.91
58467;BME280;44255;49.244;7.726;2023-03-24T10:17:56;97410.22;;;5.45;96.23
58467;BME280;44255;49.244;7.726;2023-03-24T10:23:26;97423.50;;;5.74;92.35
58467;BME280;44255;49.244;7.726;2023-03-24T10:31:36;97449.00;;;4.01;95.78
58467;BME280;44255;49.244;7.726;2023-03-24T10:34:03;97449.19;;;4.14;97.70
58467;BME280;44255;49.244;7.726;2023-03-24T10:36:28;97458.53;;;4.68;95.80
58467;BME280;44255;49.244;7.726;2023-03-24T10:38:55;97466.91;;;3.99;100.00
58467;BME280;44255;49.244;7.726;2023-03-24T10:41:22;97465.44;;;3.93;100.00
58467;BME280;44255;49.244;7.726;2023-03-24T10:43:50;97455.38;;;3.98;99.43
58467;BME280;44255;49.244;7.726;2023-03-24T10:46:19;97458.31;;;3.93;100.00
58467;BME280;44255;49.244;7.726;2023-03-24T10:48:49;97460.63;;;4.00;100.00
58467;BME280;44255;49.244;7.726;2023-03-24T10:51:25;97450.25;;;4.42;99.43
58467;BME280;44255;49.244;7.726;2023-03-24T10:54:11;97457.47;;;4.70;99.38
58467;BME280;44255;49.244;7.726;2023-03-24T10:56:42;97456.72;;;4.83;94.91
58467;BME280;44255;49.244;7.726;2023-03-24T10:59:21;97460.16;;;4.85;97.26
58467;BME280;44255;49.244;7.726;2023-03-24T11:01:49;97456.72;;;4.83;95.71
58467;BME280;44255;49.244;7.726;2023-03-24T11:04:19;97466.03;;;4.61;97.07
58467;BME280;44255;49.244;7.726;2023-03-24T11:07:18;97475.16;;;4.87;97.38
58467;BME280;44255;49.244;7.726;2023-03-24T11:12:36;97486.47;;;4.76;98.16
58467;BME280;44255;49.244;7.726;2023-03-24T11:15:16;97483.16;;;4.87;95.40
58467;BME280;44255;49.244;7.726;2023-03-24T11:17:43;97483.44;;;4.83;96.90
58467;BME280;44255;49.244;7.726;2023-03-24T11:23:08;97484.78;;;3.97;99.22
58467;BME280;44255;49.244;7.726;2023-03-24T11:25:38;97481.88;;;4.64;97.92
58467;BME280;44255;49.244;7.726;2023-03-24T11:28:12;97485.31;;;4.19;95.90
58467;BME280;44255;49.244;7.726;2023-03-24T11:30:52;97475.66;;;4.63;95.08
58467;BME280;44255;49.244;7.726;2023-03-24T11:33:27;97485.25;;;4.51;94.33
58467;BME280;44255;49.244;7.726;2023-03-24T11:35:53;97487.41;;;4.45;95.58
58467;BME280;44255;49.244;7.726;2023-03-24T11:38:27;97493.50;;;5.51;90.10
58467;BME280;44255;49.244;7.726;2023-03-24T11:40:59;97498.13;;;5.04;89.71
58467;BME280;44255;49.244;7.726;2023-03-24T11:43:26;97489.63;;;4.98;93.15
58467;BME280;44255;49.244;7.726;2023-03-24T11:51:10;97474.53;;;6.26;87.19
58467;BME280;44255;49.244;7.726;2023-03-24T11:53:41;97480.88;;;5.83;87.17
58467;BME280;44255;49.244;7.726;2023-03-24T11:56:16;97469.13;;;6.13;86.61
58467;BME280;44255;49.244;7.726;2023-03-24T11:58:52;97462.50;;;6.46;86.02
58467;BME280;44255;49.244;7.726;2023-03-24T12:04:15;97454.91;;;6.40;81.86
58467;BME280;44255;49.244;7.726;2023-03-24T12:12:20;97472.53;;;6.02;83.08
58467;BME280;44255;49.244;7.726;2023-03-24T12:15:24;97465.66;;;6.25;82.27
58467;BME280;44255;49.244;7.726;2023-03-24T12:18:07;97463.47;;;7.74;77.34
58467;BME280;44255;49.244;7.726;2023-03-24T12:20:46;97444.69;;;7.87;72.88
58467;BME280;44255;49.244;7.726;2023-03-24T12:23:26;97448.41;;;8.11;69.19
58467;BME280;44255;49.244;7.726;2023-03-24T12:26:19;97444.25;;;8.78;69.01
58467;BME280;44255;49.244;7.726;2023-03-24T12:34:35;97442.50;;;8.30;68.58
58467;BME280;44255;49.244;7.726;2023-03-24T12:37:38;97438.75;;;8.08;69.11
58467;BME280;44255;49.244;7.726;2023-03-24T12:42:39;97439.19;;;7.52;70.65
58467;BME280;44255;49.244;7.726;2023-03-24T12:45:18;97438.50;;;8.83;66.58
58467;BME280;44255;49.244;7.726;2023-03-24T12:53:20;97445.59;;;7.25;70.69
58467;BME280;44255;49.244;7.726;2023-03-24T12:55:53;97449.09;;;7.25;73.17
58467;BME280;44255;49.244;7.726;2023-03-24T12:58:34;97448.13;;;7.39;71.69
58467;BME280;44255;49.244;7.726;2023-03-24T13:01:08;97439.19;;;8.26;67.45
58467;BME280;44255;49.244;7.726;2023-03-24T13:04:02;97447.75;;;9.71;64.27
58467;BME280;44255;49.244;7.726;2023-03-24T13:06:34;97443.81;;;11.58;56.18
58467;BME280;44255;49.244;7.726;2023-03-24T13:09:18;97444.16;;;11.03;56.74
58467;BME280;44255;49.244;7.726;2023-03-24T13:11:54;97434.09;;;11.77;53.95
58467;BME280;44255;49.244;7.726;2023-03-24T13:14:29;97425.50;;;10.57;55.26
58467;BME280;44255;49.244;7.726;2023-03-24T13:17:02;97438.53;;;8.94;58.58
58467;BME280;44255;49.244;7.726;2023-03-24T13:19:29;97419.16;;;9.70;59.51
58467;BME280;44255;49.244;7.726;2023-03-24T13:21:55;97420.94;;;10.04;56.68
58467;BME280;44255;49.244;7.726;2023-03-24T13:24:21;97413.50;;;8.35;59.72
58467;BME280;44255;49.244;7.726;2023-03-24T13:26:59;97426.53;;;8.40;60.57
58467;BME280;44255;49.244;7.726;2023-03-24T13:38:14;97407.88;;;10.32;53.99
58467;BME280;44255;49.244;7.726;2023-03-24T13:40:50;97403.78;;;9.27;56.58
58467;BME280;44255;49.244;7.726;2023-03-24T13:43:28;97418.03;;;8.93;56.25
58467;BME280;44255;49.244;7.726;2023-03-24T13:46:00;97420.66;;;9.52;54.09
58467;BME280;44255;49.244;7.726;2023-03-24T13:48:39;97408.53;;;9.57;53.37
58467;BME280;44255;49.244;7.726;2023-03-24T13:51:23;97410.34;;;10.77;51.32
58467;BME280;44255;49.244;7.726;2023-03-24T13:54:05;97399.81;;;12.18;43.89
58467;BME280;44255;49.244;7.726;2023-03-24T13:56:36;97396.28;;;13.53;42.57
58467;BME280;44255;49.244;7.726;2023-03-24T13:59:26;97414.84;;;13.48;40.78
58467;BME280;44255;49.244;7.726;2023-03-24T14:02:18;97395.03;;;13.47;40.15
58467;BME280;44255;49.244;7.726;2023-03-24T14:16:24;97388.16;;;12.57;39.23
58467;BME280;44255;49.244;7.726;2023-03-24T14:23:36;97390.13;;;12.95;38.33
58467;BME280;44255;49.244;7.726;2023-03-24T14:26:03;97395.47;;;11.76;40.16
58467;BME280;44255;49.244;7.726;2023-03-24T14:28:35;97386.19;;;11.59;39.64
58467;BME280;44255;49.244;7.726;2023-03-24T14:36:28;97387.59;;;12.34;37.07
58467;BME280;44255;49.244;7.726;2023-03-24T14:39:07;97398.72;;;11.70;37.50
58467;BME280;44255;49.244;7.726;2023-03-24T14:41:35;97401.88;;;10.28;39.74
58467;BME280;44255;49.244;7.726;2023-03-24T14:44:04;97398.44;;;10.38;39.87
58467;BME280;44255;49.244;7.726;2023-03-24T14:46:40;97402.56;;;11.05;38.53
58467;BME280;44255;49.244;7.726;2023-03-24T14:54:36;97402.25;;;10.77;40.26
58467;BME280;44255;49.244;7.726;2023-03-24T14:57:03;97389.19;;;11.66;38.01
58467;BME280;44255;49.244;7.726;2023-03-24T14:59:38;97396.97;;;11.18;38.53
58467;BME280;44255;49.244;7.726;2023-03-24T15:02:35;97388.53;;;10.05;41.23
58467;BME280;44255;49.244;7.726;2023-03-24T15:07:40;97401.28;;;10.79;40.45
58467;BME280;44255;49.244;7.726;2023-03-24T15:10:13;97381.91;;;10.95;40.58
58467;BME280;44255;49.244;7.726;2023-03-24T15:12:45;97397.66;;;10.89;41.52
58467;BME280;44255;49.244;7.726;2023-03-24T15:15:20;97373.13;;;11.14;40.67
58467;BME280;44255;49.244;7.726;2023-03-24T15:17:48;97389.13;;;10.30;41.16
58467;BME280;44255;49.244;7.726;2023-03-24T15:20:26;97380.41;;;10.17;42.21
58467;BME280;44255;49.244;7.726;2023-03-24T15:22:52;97384.59;;;9.98;42.58
58467;BME280;44255;49.244;7.726;2023-03-24T15:25:27;97394.66;;;8.71;43.38
58467;BME280;44255;49.244;7.726;2023-03-24T15:27:53;97385.72;;;9.17;43.44
58467;BME280;44255;49.244;7.726;2023-03-24T15:30:19;97384.56;;;9.54;43.70
58467;BME280;44255;49.244;7.726;2023-03-24T15:32:45;97376.28;;;10.55;41.44
58467;BME280;44255;49.244;7.726;2023-03-24T15:35:15;97377.72;;;10.38;41.82
58467;BME280;44255;49.244;7.726;2023-03-24T15:37:41;97375.94;;;9.16;43.13
58467;BME280;44255;49.244;7.726;2023-03-24T15:40:41;97349.81;;;11.03;40.87
58467;BME280;44255;49.244;7.726;2023-03-24T15:43:19;97372.50;;;10.58;40.77
58467;BME280;44255;49.244;7.726;2023-03-24T15:45:50;97364.75;;;10.43;41.64
58467;BME280;44255;49.244;7.726;2023-03-24T15:48:24;97372.25;;;11.13;40.10
58467;BME280;44255;49.244;7.726;2023-03-24T15:51:01;97366.06;;;10.49;42.23
58467;BME280;44255;49.244;7.726;2023-03-24T15:53:35;97378.84;;;10.78;40.63
58467;BME280;44255;49.244;7.726;2023-03-24T15:56:18;97371.50;;;10.38;41.39
58467;BME280;44255;49.244;7.726;2023-03-24T15:58:55;97379.88;;;9.90;43.04
58467;BME280;44255;49.244;7.726;2023-03-24T16:01:26;97369.09;;;9.46;43.13
58467;BME280;44255;49.244;7.726;2023-03-24T16:03:55;97398.38;;;8.10;45.10
58467;BME280;44255;49.244;7.726;2023-03-24T16:06:31;97383.69;;;8.62;45.29
58467;BME280;44255;49.244;7.726;2023-03-24T16:09:00;97389.72;;;9.12;43.92
58467;BME280;44255;49.244;7.726;2023-03-24T16:11:27;97377.16;;;10.34;42.12
58467;BME280;44255;49.244;7.726;2023-03-24T16:13:53;97374.41;;;10.98;41.05
58467;BME280;44255;49.244;7.726;2023-03-24T16:16:24;97378.03;;;11.40;39.54
58467;BME280;44255;49.244;7.726;2023-03-24T16:18:50;97377.06;;;12.11;39.07
58467;BME280;44255;49.244;7.726;2023-03-24T16:21:19;97374.00;;;11.24;39.62
58467;BME280;44255;49.244;7.726;2023-03-24T16:23:45;97386.81;;;10.58;41.53
58467;BME280;44255;49.244;7.726;2023-03-24T16:26:16;97389.69;;;11.40;40.67
58467;BME280;44255;49.244;7.726;2023-03-24T16:28:42;97387.97;;;11.08;40.47
58467;BME280;44255;49.244;7.726;2023-03-24T16:31:15;97391.19;;;11.33;40.31
58467;BME280;44255;49.244;7.726;2023-03-24T16:33:41;97387.34;;;11.26;40.34
58467;BME280;44255;49.244;7.726;2023-03-24T16:36:09;97391.19;;;11.33;40.13
58467;BME280;44255;49.244;7.726;2023-03-24T16:38:35;97398.50;;;11.42;39.80
58467;BME280;44255;49.244;7.726;2023-03-24T16:41:01;97399.03;;;10.62;41.76
58467;BME280;44255;49.244;7.726;2023-03-24T16:43:26;97409.09;;;9.84;42.83
58467;BME280;44255;49.244;7.726;2023-03-24T16:45:53;97393.47;;;10.22;42.96
58467;BME280;44255;49.244;7.726;2023-03-24T16:48:19;97400.72;;;10.10;42.38
58467;BME280;44255;49.244;7.726;2023-03-24T16:50:49;97397.91;;;9.56;44.50
58467;BME280;44255;49.244;7.726;2023-03-24T16:53:15;97393.97;;;10.15;43.32
58467;BME280;44255;49.244;7.726;2023-03-24T16:55:41;97393.47;;;10.22;43.13
58467;BME280;44255;49.244;7.726;2023-03-24T16:58:09;97400.59;;;10.44;43.33
58467;BME280;44255;49.244;7.726;2023-03-24T17:00:36;97411.84;;;9.38;45.14
58467;BME280;44255;49.244;7.726;2023-03-24T17:03:02;97406.72;;;9.35;45.46
58467;BME280;44255;49.244;7.726;2023-03-24T17:05:30;97399.75;;;9.10;46.07
58467;BME280;44255;49.244;7.726;2023-03-24T17:07:58;97407.00;;;8.85;47.03
58467;BME280;44255;49.244;7.726;2023-03-24T17:10:24;97415.59;;;8.90;47.55
58467;BME280;44255;49.244;7.726;2023-03-24T17:12:52;97416.44;;;8.43;47.28
58467;BME280;44255;49.244;7.726;2023-03-24T17:15:23;97412.44;;;8.49;47.63
58467;BME280;44255;49.244;7.726;2023-03-24T17:17:49;97413.03;;;8.17;48.82
58467;BME280;44255;49.244;7.726;2023-03-24T17:20:14;97412.97;;;8.05;49.22
58467;BME280;44255;49.244;7.726;2023-03-24T17:22:41;97418.72;;;7.88;49.37
58467;BME280;44255;49.244;7.726;2023-03-24T17:25:09;97426.22;;;7.58;49.86
58467;BME280;44255;49.244;7.726;2023-03-24T17:27:35;97425.31;;;7.07;51.47
58467;BME280;44255;49.244;7.726;2023-03-24T17:30:00;97424.56;;;6.79;51.20
58467;BME280;44255;49.244;7.726;2023-03-24T17:32:30;97423.94;;;7.02;51.60
58467;BME280;44255;49.244;7.726;2023-03-24T17:34:57;97432.41;;;6.83;51.43
58467;BME280;44255;49.244;7.726;2023-03-24T17:37:23;97439.53;;;6.56;51.63
58467;BME280;44255;49.244;7.726;2023-03-24T17:39:49;97428.16;;;6.65;51.65
58467;BME280;44255;49.244;7.726;2023-03-24T17:42:14;97426.03;;;6.71;51.92
58467;BME280;44255;49.244;7.726;2023-03-24T17:44:39;97431.78;;;6.51;52.12
58467;BME280;44255;49.244;7.726;2023-03-24T17:47:04;97427.19;;;6.54;51.61
58467;BME280;44255;49.244;7.726;2023-03-24T17:49:31;97430.53;;;6.57;52.07
58467;BME280;44255;49.244;7.726;2023-03-24T17:51:57;97430.56;;;6.30;52.23
58467;BME280;44255;49.244;7.726;2023-03-24T17:54:22;97428.50;;;6.20;53.16
58467;BME280;44255;49.244;7.726;2023-03-24T17:56:49;97437.94;;;6.26;52.39
58467;BME280;44255;49.244;7.726;2023-03-24T17:59:14;97438.41;;;6.33;53.05
58467;BME280;44255;49.244;7.726;2023-03-24T18:01:40;97440.00;;;6.76;51.53
58467;BME280;44255;49.244;7.726;2023-03-24T18:04:06;97438.38;;;6.86;51.55
58467;BME280;44255;49.244;7.726;2023-03-24T18:06:31;97438.22;;;6.62;51.91
58467;BME280;44255;49.244;7.726;2023-03-24T18:08:56;97434.63;;;6.35;52.55
58467;BME280;44255;49.244;7.726;2023-03-24T18:11:22;97429.63;;;6.31;53.30
58467;BME280;44255;49.244;7.726;2023-03-24T18:13:48;97427.03;;;6.29;53.54
58467;BME280;44255;49.244;7.726;2023-03-24T18:16:14;97424.50;;;6.41;53.63
58467;BME280;44255;49.244;7.726;2023-03-24T18:18:41;97431.03;;;6.09;54.84
58467;BME280;44255;49.244;7.726;2023-03-24T18:21:08;97434.81;;;5.50;55.57
58467;BME280;44255;49.244;7.726;2023-03-24T18:23:34;97429.94;;;5.99;56.86
58467;BME280;44255;49.244;7.726;2023-03-24T18:26:06;97426.44;;;5.84;55.56
58467;BME280;44255;49.244;7.726;2023-03-24T18:28:33;97435.56;;;5.67;56.44
58467;BME280;44255;49.244;7.726;2023-03-24T18:30:59;97428.09;;;5.72;55.99
58467;BME280;44255;49.244;7.726;2023-03-24T18:33:25;97434.19;;;5.74;56.35
58467;BME280;44255;49.244;7.726;2023-03-24T18:35:56;97432.22;;;5.63;56.66
58467;BME280;44255;49.244;7.726;2023-03-24T18:38:22;97432.41;;;5.74;56.36
58467;BME280;44255;49.244;7.726;2023-03-24T18:41:03;97443.63;;;5.79;56.13
58467;BME280;44255;49.244;7.726;2023-03-24T18:43:29;97444.19;;;5.85;56.35
58467;BME280;44255;49.244;7.726;2023-03-24T18:45:55;97448.31;;;5.76;57.92
58467;BME280;44255;49.244;7.726;2023-03-24T18:48:20;97455.31;;;5.64;59.14
58467;BME280;44255;49.244;7.726;2023-03-24T18:50:48;97457.41;;;5.73;58.38
58467;BME280;44255;49.244;7.726;2023-03-24T18:53:16;97456.97;;;5.52;59.30
58467;BME280;44255;49.244;7.726;2023-03-24T18:55:42;97462.47;;;5.34;61.26
58467;BME280;44255;49.244;7.726;2023-03-24T18:58:08;97460.75;;;5.33;61.93
58467;BME280;44255;49.244;7.726;2023-03-24T19:00:39;97463.91;;;5.26;61.76
58467;BME280;44255;49.244;7.726;2023-03-24T19:03:05;97471.34;;;5.06;63.27
58467;BME280;44255;49.244;7.726;2023-03-24T19:05:31;97472.50;;;5.02;61.15
58467;BME280;44255;49.244;7.726;2023-03-24T19:07:56;97472.31;;;5.19;62.39
58467;BME280;44255;49.244;7.726;2023-03-24T19:10:22;97480.69;;;4.84;64.63
58467;BME280;44255;49.244;7.726;2023-03-24T19:12:47;97497.47;;;5.01;64.76